Time;durP1;ratioP1;P1;durP2;ratioP2;P2;SDS_P1;SDS_P2;PMS_P1;PMS_P2;Temp;Humidity;BMP_temperature;BMP_pressure;BME280_temperature;BME280_humidity;BME280_pressure;Samples;Min_cycle;Max_cycle;Signal;HPM_P1;HPM_P2
2022/11/16 00:01:27;;;;;;;50.78;21.88;;;8.20;99.90;;;;;;4995383;28;20081;-70
2022/11/16 00:03:54;;;;;;;47.08;21.90;;;8.20;99.90;;;;;;4996819;28;20130;-70
2022/11/16 00:06:21;;;;;;;48.15;21.80;;;8.20;99.90;;;;;;4995268;28;20065;-70
2022/11/16 00:09:20;;;;;;;46.92;20.08;;;8.20;99.90;;;;;;4996559;28;20030;-70
2022/11/16 00:11:37;;;;;;;44.30;19.48;;;8.20;99.90;;;;;;4996234;28;20402;-70
2022/11/16 00:14:03;;;;;;;49.47;21.55;;;8.20;99.90;;;;;;4996080;28;20041;-70
2022/11/16 00:16:29;;;;;;;52.40;21.13;;;8.20;99.90;;;;;;4995232;28;20034;-70
2022/11/16 00:18:57;;;;;;;45.90;21.70;;;8.20;99.90;;;;;;4995760;28;20486;-70
2022/11/16 00:21:24;;;;;;;49.85;21.48;;;8.20;99.90;;;;;;4996877;28;20387;-71
2022/11/16 00:23:50;;;;;;;46.78;20.52;;;8.20;99.90;;;;;;4995742;28;20065;-71
2022/11/16 00:26:16;;;;;;;48.95;21.50;;;8.20;99.90;;;;;;4998340;28;20382;-73
2022/11/16 00:28:41;;;;;;;47.10;21.35;;;8.20;99.90;;;;;;4997848;28;20466;-71
2022/11/16 00:31:08;;;;;;;114.30;50.25;;;8.20;99.90;;;;;;4998873;28;20033;-71
2022/11/16 00:33:33;;;;;;;53.83;23.33;;;8.20;99.90;;;;;;4999365;28;20030;-71
2022/11/16 00:36:04;;;;;;;48.33;20.52;;;8.20;99.90;;;;;;4998924;28;20041;-71
2022/11/16 00:38:29;;;;;;;50.25;20.52;;;8.20;99.90;;;;;;4998899;28;20026;-71
2022/11/16 00:40:55;;;;;;;47.35;21.02;;;8.20;99.90;;;;;;4999550;28;20077;-71
2022/11/16 00:43:21;;;;;;;53.17;21.40;;;8.10;99.90;;;;;;4998135;28;20050;-71
2022/11/16 00:45:47;;;;;;;46.33;20.25;;;8.20;99.90;;;;;;4998848;28;20022;-71
2022/11/16 00:48:12;;;;;;;50.72;21.15;;;8.20;99.90;;;;;;4998985;28;20374;-71
2022/11/16 00:50:39;;;;;;;50.67;20.38;;;8.20;99.90;;;;;;4997483;28;20113;-71
2022/11/16 00:53:05;;;;;;;57.08;21.90;;;8.10;99.90;;;;;;4999222;28;20026;-70
2022/11/16 00:55:32;;;;;;;48.13;20.70;;;8.10;99.90;;;;;;4997587;28;20042;-71
2022/11/16 00:57:58;;;;;;;49.78;21.65;;;8.10;99.90;;;;;;4997931;28;20027;-71
2022/11/16 01:00:23;;;;;;;54.72;23.15;;;8.10;99.90;;;;;;4996121;28;20032;-71
2022/11/16 01:02:51;;;;;;;51.25;21.90;;;8.20;99.90;;;;;;4995883;28;20026;-70
2022/11/16 01:05:17;;;;;;;50.92;22.27;;;8.20;99.90;;;;;;4996028;28;20360;-71
2022/11/16 01:07:43;;;;;;;57.63;22.95;;;8.20;99.90;;;;;;4997237;28;20057;-71
2022/11/16 01:10:12;;;;;;;59.58;23.83;;;8.20;99.90;;;;;;4997863;28;20026;-71
2022/11/16 01:12:38;;;;;;;55.75;23.35;;;8.20;99.90;;;;;;4997140;28;20026;-71
2022/11/16 01:15:07;;;;;;;50.67;23.10;;;8.20;99.90;;;;;;4997246;28;20034;-71
2022/11/16 01:17:37;;;;;;;58.67;23.00;;;8.20;99.90;;;;;;4995393;28;20034;-71
2022/11/16 01:20:05;;;;;;;53.17;22.27;;;8.20;99.90;;;;;;4996266;28;20026;-70
2022/11/16 01:22:34;;;;;;;51.25;22.83;;;8.20;99.90;;;;;;4996285;28;20026;-71
2022/11/16 01:25:00;;;;;;;54.17;22.23;;;8.20;99.90;;;;;;4995004;28;20490;-71
2022/11/16 01:27:26;;;;;;;54.65;22.73;;;8.20;99.90;;;;;;4995716;28;20085;-71
2022/11/16 01:29:52;;;;;;;45.47;21.63;;;8.20;99.90;;;;;;4995358;28;20109;-70
2022/11/16 01:32:17;;;;;;;52.65;21.10;;;8.20;99.90;;;;;;4995412;28;20431;-71
2022/11/16 01:34:43;;;;;;;50.40;20.92;;;8.20;99.90;;;;;;4994556;28;20034;-71
2022/11/16 01:37:09;;;;;;;56.10;21.35;;;8.20;99.90;;;;;;4994759;28;20430;-70
2022/11/16 01:39:34;;;;;;;46.60;21.00;;;8.20;99.90;;;;;;4994436;28;20034;-71
2022/11/16 01:42:00;;;;;;;51.80;22.08;;;8.20;99.90;;;;;;4995628;28;20088;-71
2022/11/16 01:44:32;;;;;;;50.28;20.98;;;8.20;99.90;;;;;;4994835;28;20051;-71
2022/11/16 01:47:04;;;;;;;46.95;21.08;;;8.20;99.90;;;;;;4994362;28;20022;-71
2022/11/16 01:49:33;;;;;;;52.33;21.50;;;8.20;99.90;;;;;;4994221;28;20475;-71
2022/11/16 01:52:03;;;;;;;44.63;20.17;;;8.20;99.90;;;;;;4994215;28;20471;-71
2022/11/16 01:54:31;;;;;;;51.75;22.17;;;8.20;99.90;;;;;;4993770;28;20042;-71
2022/11/16 01:57:01;;;;;;;38.13;15.33;;;8.20;99.90;;;;;;4995122;28;20029;-70
2022/11/16 01:59:28;;;;;;;49.58;22.45;;;8.20;99.90;;;;;;4993782;28;20273;-70
2022/11/16 02:01:53;;;;;;;58.42;22.38;;;8.20;99.90;;;;;;4994997;28;20117;-71
2022/11/16 02:04:20;;;;;;;55.60;23.30;;;8.20;99.90;;;;;;4993991;28;20525;-70
2022/11/16 02:07:01;;;;;;;52.38;22.13;;;8.20;99.90;;;;;;4993852;28;20478;-71
2022/11/16 02:09:54;;;;;;;59.55;22.90;;;8.20;99.90;;;;;;4995337;28;20088;-71
2022/11/16 02:12:55;;;;;;;63.78;24.13;;;8.20;99.90;;;;;;4995651;28;20027;-71
2022/11/16 02:15:27;;;;;;;62.75;24.42;;;8.20;99.90;;;;;;4942318;28;20066;-72
2022/11/16 02:18:01;;;;;;;52.97;23.83;;;8.20;99.90;;;;;;4995676;28;20022;-72
2022/11/16 02:20:48;;;;;;;68.10;26.42;;;8.20;99.90;;;;;;4995014;28;20023;-72
2022/11/16 02:23:51;;;;;;;67.53;26.23;;;8.20;99.90;;;;;;4995647;28;20052;-72
2022/11/16 02:26:29;;;;;;;67.30;24.65;;;8.20;99.90;;;;;;4995888;28;20026;-72
2022/11/16 02:29:16;;;;;;;65.35;25.98;;;8.20;99.90;;;;;;4995418;28;20026;-72
2022/11/16 02:32:12;;;;;;;59.63;23.75;;;8.20;99.90;;;;;;4994958;28;20030;-72
2022/11/16 02:34:43;;;;;;;70.38;25.05;;;8.20;99.90;;;;;;4990132;28;20046;-72
2022/11/16 02:37:11;;;;;;;74.88;26.73;;;8.20;99.90;;;;;;4997889;28;20522;-72
2022/11/16 02:39:38;;;;;;;65.82;25.42;;;8.20;99.90;;;;;;4996251;28;20030;-72
2022/11/16 02:42:10;;;;;;;69.05;25.35;;;8.20;99.90;;;;;;4995546;28;20058;-72
2022/11/16 02:44:42;;;;;;;69.97;26.88;;;8.20;99.90;;;;;;4996554;28;20557;-72
2022/11/16 02:47:14;;;;;;;73.82;26.13;;;8.20;99.90;;;;;;4996491;28;20029;-72
2022/11/16 02:49:44;;;;;;;65.43;25.95;;;8.20;99.90;;;;;;4995741;28;20037;-72
2022/11/16 02:52:11;;;;;;;77.78;27.95;;;8.20;99.90;;;;;;4997542;28;20397;-72
2022/11/16 02:54:37;;;;;;;81.03;27.92;;;8.10;99.90;;;;;;5000373;28;20366;-72
2022/11/16 02:57:02;;;;;;;81.85;27.42;;;8.20;99.90;;;;;;5000719;28;20026;-72
2022/11/16 02:59:45;;;;;;;76.43;27.60;;;8.10;99.90;;;;;;5000609;28;20132;-72
2022/11/16 03:02:23;;;;;;;80.47;27.83;;;8.20;99.90;;;;;;4998487;28;20037;-72
2022/11/16 03:05:17;;;;;;;74.85;27.63;;;8.20;99.90;;;;;;5000406;28;20109;-72
2022/11/16 03:07:51;;;;;;;80.78;27.52;;;8.10;99.90;;;;;;4997944;28;20483;-72
2022/11/16 03:13:07;;;;;;;60.20;21.38;;;8.10;99.90;;;;;;4969072;28;20048;-72
2022/11/16 03:15:37;;;;;;;74.47;25.48;;;8.10;99.90;;;;;;4999740;28;20030;-72
2022/11/16 03:18:05;;;;;;;62.38;25.75;;;8.10;99.90;;;;;;5000335;28;20104;-72
2022/11/16 03:20:34;;;;;;;75.32;25.15;;;8.10;99.90;;;;;;4998611;28;20381;-72
2022/11/16 03:23:04;;;;;;;67.50;26.48;;;8.10;99.90;;;;;;5000034;28;20061;-72
2022/11/16 03:25:44;;;;;;;68.05;25.50;;;8.10;99.90;;;;;;4999838;28;20044;-71
2022/11/16 03:28:19;;;;;;;61.92;23.15;;;8.10;99.90;;;;;;4999156;28;20034;-72
2022/11/16 03:30:57;;;;;;;63.25;24.55;;;8.10;99.90;;;;;;4998154;28;20026;-72
2022/11/16 03:33:26;;;;;;;62.00;23.92;;;8.10;99.90;;;;;;4997933;28;20034;-72
2022/11/16 03:36:04;;;;;;;62.67;23.77;;;8.10;99.90;;;;;;4999403;28;20570;-72
2022/11/16 03:38:32;;;;;;;62.13;23.73;;;8.10;99.90;;;;;;4998435;28;20037;-72
2022/11/16 03:41:02;;;;;;;60.60;23.90;;;8.10;99.90;;;;;;4997990;28;20561;-72
2022/11/16 03:43:30;;;;;;;55.00;22.42;;;8.10;99.90;;;;;;4997911;28;20050;-72
2022/11/16 03:45:57;;;;;;;59.45;26.20;;;8.20;99.90;;;;;;4998857;28;20049;-72
2022/11/16 03:48:23;;;;;;;65.75;25.35;;;8.10;99.90;;;;;;4998638;28;20030;-72
2022/11/16 03:50:49;;;;;;;60.40;23.70;;;8.20;99.90;;;;;;4998913;28;20030;-72
2022/11/16 03:53:14;;;;;;;61.03;23.42;;;8.20;99.90;;;;;;4996652;28;20034;-72
2022/11/16 03:55:40;;;;;;;57.33;24.42;;;8.10;99.90;;;;;;4997936;28;20074;-72
2022/11/16 03:58:06;;;;;;;67.15;26.50;;;8.20;99.90;;;;;;4998280;28;20081;-72
2022/11/16 04:00:32;;;;;;;60.20;25.80;;;8.10;99.90;;;;;;4997972;28;20022;-72
2022/11/16 04:02:57;;;;;;;65.85;25.48;;;8.20;99.90;;;;;;4996242;28;20519;-72
2022/11/16 04:25:14;;;;;;;83.15;30.05;;;8.00;99.90;;;;;;4997038;28;20037;-72
2022/11/16 04:37:47;;;;;;;76.60;28.98;;;8.00;99.90;;;;;;4997146;28;20088;-72
2022/11/16 04:38:39;;;;;;;74.32;29.55;;;8.00;99.90;;;;;;4997791;28;20169;-72
2022/11/16 04:42:12;;;;;;;72.03;27.65;;;8.00;99.90;;;;;;4996807;28;20057;-72
2022/11/16 04:43:50;;;;;;;78.90;29.40;;;8.00;99.90;;;;;;4997275;28;20050;-73
2022/11/16 04:48:59;;;;;;;87.15;29.75;;;8.00;99.90;;;;;;4998957;28;20037;-73
2022/11/16 04:51:25;;;;;;;81.50;31.25;;;8.00;99.90;;;;;;4999332;28;20023;-73
2022/11/16 04:53:51;;;;;;;85.47;29.65;;;8.00;99.90;;;;;;4997575;28;20532;-72
2022/11/16 04:56:16;;;;;;;78.50;30.50;;;8.00;99.90;;;;;;4997236;28;20034;-72
2022/11/16 04:58:42;;;;;;;75.35;30.15;;;8.00;99.90;;;;;;4997944;28;20070;-72
2022/11/16 05:01:07;;;;;;;77.65;28.73;;;8.00;99.90;;;;;;4998437;28;20093;-72
2022/11/16 05:03:33;;;;;;;80.90;28.80;;;7.90;99.90;;;;;;4996014;28;20027;-71
2022/11/16 05:05:58;;;;;;;77.60;27.40;;;7.90;99.90;;;;;;4998132;28;20038;-72
2022/11/16 05:08:24;;;;;;;70.60;29.10;;;7.90;99.90;;;;;;4996831;28;20027;-72
2022/11/16 05:10:50;;;;;;;75.22;27.27;;;7.90;99.90;;;;;;4995641;28;20026;-72
2022/11/16 05:13:16;;;;;;;79.70;29.52;;;7.90;99.90;;;;;;4996764;28;20057;-72
2022/11/16 05:15:45;;;;;;;73.22;27.38;;;7.90;99.90;;;;;;4995593;28;20120;-72
2022/11/16 05:18:10;;;;;;;56.05;20.73;;;8.00;99.90;;;;;;4997158;28;20218;-71
2022/11/16 05:26:04;;;;;;;76.20;28.38;;;7.90;99.90;;;;;;4996087;28;20145;-71
2022/11/16 05:28:30;;;;;;;81.85;29.02;;;8.00;99.90;;;;;;4996694;28;20250;-71
2022/11/16 05:30:56;;;;;;;83.05;30.08;;;8.00;99.90;;;;;;4996385;28;20077;-71
2022/11/16 05:33:21;;;;;;;83.45;30.77;;;8.00;99.90;;;;;;4995915;28;20034;-70
2022/11/16 05:35:50;;;;;;;84.53;30.38;;;8.00;99.90;;;;;;4995528;28;20030;-71
2022/11/16 05:38:15;;;;;;;79.55;30.52;;;8.00;99.90;;;;;;4994630;28;20026;-69
2022/11/16 05:40:41;;;;;;;85.88;31.70;;;8.00;99.90;;;;;;4994768;28;20552;-71
2022/11/16 05:43:07;;;;;;;84.47;30.15;;;8.00;99.90;;;;;;4997068;28;20058;-72
2022/11/16 05:45:32;;;;;;;82.22;32.78;;;7.90;99.90;;;;;;4995050;28;20026;-71
2022/11/16 05:47:58;;;;;;;80.35;30.88;;;7.90;99.90;;;;;;4994605;28;20033;-71
2022/11/16 05:50:24;;;;;;;79.63;30.33;;;7.90;99.90;;;;;;4995729;28;20022;-71
2022/11/16 05:52:49;;;;;;;84.43;31.27;;;7.90;99.90;;;;;;4995955;28;20074;-75
2022/11/16 05:55:15;;;;;;;81.75;30.40;;;7.90;99.90;;;;;;4997385;28;20033;-76
2022/11/16 05:57:41;;;;;;;85.20;31.02;;;7.90;99.90;;;;;;4996617;28;20041;-75
2022/11/16 06:00:07;;;;;;;88.55;33.10;;;7.90;99.90;;;;;;4997724;28;20113;-76
2022/11/16 06:02:33;;;;;;;87.00;32.28;;;7.90;99.90;;;;;;4997046;28;20037;-76
2022/11/16 06:04:59;;;;;;;127.10;55.30;;;7.90;99.90;;;;;;4995954;28;20121;-75
2022/11/16 06:07:24;;;;;;;96.47;33.13;;;7.90;99.90;;;;;;4996586;28;20026;-76
2022/11/16 06:09:50;;;;;;;88.38;31.50;;;7.90;99.90;;;;;;4996314;28;20023;-76
2022/11/16 06:12:15;;;;;;;88.72;32.28;;;7.90;99.90;;;;;;4996823;28;20034;-76
2022/11/16 06:15:19;;;;;;;94.43;37.25;;;7.90;99.90;;;;;;4994450;28;20038;-75
2022/11/16 06:21:19;;;;;;;93.97;34.83;;;7.90;99.90;;;;;;4996276;28;20072;-75
2022/11/16 06:24:23;;;;;;;78.20;30.92;;;8.00;99.90;;;;;;4996615;28;20053;-76
2022/11/16 06:26:48;;;;;;;96.50;40.55;;;8.00;99.90;;;;;;4998341;28;20039;-76
2022/11/16 06:29:14;;;;;;;114.10;48.47;;;8.00;99.90;;;;;;4999286;28;20050;-76
2022/11/16 06:32:21;;;;;;;81.95;35.50;;;7.90;99.90;;;;;;5002051;28;20034;-76
2022/11/16 06:38:19;;;;;;;80.03;31.85;;;7.90;99.90;;;;;;5003326;28;20536;-75
2022/11/16 06:44:07;;;;;;;80.22;32.17;;;7.90;99.90;;;;;;5001640;28;20090;-75
2022/11/16 06:50:00;;;;;;;75.90;30.42;;;7.90;99.90;;;;;;5001630;28;20061;-75
2022/11/16 06:52:25;;;;;;;77.25;30.88;;;8.00;99.90;;;;;;5001011;28;20034;-76
2022/11/16 06:54:51;;;;;;;73.47;28.75;;;8.00;99.90;;;;;;5000952;28;20117;-76
2022/11/16 06:57:23;;;;;;;71.88;29.35;;;8.00;99.90;;;;;;5000481;28;20064;-76
2022/11/16 06:59:48;;;;;;;64.43;27.95;;;8.00;99.90;;;;;;5000071;28;20027;-76
2022/11/16 07:02:14;;;;;;;62.33;26.67;;;8.00;99.90;;;;;;5001481;28;20098;-76
2022/11/16 07:04:40;;;;;;;62.35;27.70;;;8.10;99.90;;;;;;5000660;28;20104;-76
2022/11/16 07:07:06;;;;;;;70.63;27.30;;;8.10;99.90;;;;;;5000904;28;20490;-76
2022/11/16 07:09:31;;;;;;;68.80;26.65;;;8.10;99.90;;;;;;5001977;28;20031;-75
2022/11/16 07:11:57;;;;;;;67.85;27.67;;;8.10;99.90;;;;;;5000293;28;20036;-76
2022/11/16 07:14:44;;;;;;;67.93;27.23;;;8.10;99.90;;;;;;4999888;28;20478;-76
2022/11/16 07:17:09;;;;;;;69.65;25.83;;;8.10;99.90;;;;;;5001410;28;20034;-76
2022/11/16 07:19:35;;;;;;;70.32;27.13;;;8.10;99.90;;;;;;5001053;28;20099;-76
2022/11/16 07:22:01;;;;;;;59.85;25.73;;;8.10;99.90;;;;;;4999995;28;20431;-76
2022/11/16 07:24:26;;;;;;;66.22;26.73;;;8.10;99.90;;;;;;5000753;28;20030;-76
2022/11/16 07:26:52;;;;;;;55.70;25.13;;;8.10;99.90;;;;;;4998994;28;20504;-76
2022/11/16 07:29:18;;;;;;;66.35;27.52;;;8.10;99.90;;;;;;4999619;28;20045;-76
2022/11/16 07:31:43;;;;;;;58.33;24.42;;;8.20;99.90;;;;;;5000651;28;20466;-76
2022/11/16 07:34:09;;;;;;;60.55;24.42;;;8.20;99.90;;;;;;5000286;28;20034;-76
2022/11/16 07:36:35;;;;;;;62.35;24.75;;;8.20;99.90;;;;;;4998799;28;20034;-76
2022/11/16 07:39:01;;;;;;;57.08;24.58;;;8.20;99.90;;;;;;4997824;28;20034;-76
2022/11/16 07:41:26;;;;;;;56.42;22.58;;;8.30;99.90;;;;;;4998735;28;20109;-76
2022/11/16 07:43:52;;;;;;;55.28;22.48;;;8.30;99.90;;;;;;5000170;28;20132;-76
2022/11/16 07:46:20;;;;;;;52.47;22.17;;;8.30;99.90;;;;;;4998178;28;20052;-76
2022/11/16 07:48:46;;;;;;;50.40;23.13;;;8.30;99.90;;;;;;4999818;28;20030;-76
2022/11/16 07:51:15;;;;;;;53.97;22.55;;;8.30;99.90;;;;;;4998497;28;20117;-76
2022/11/16 07:53:42;;;;;;;50.85;24.00;;;8.30;99.90;;;;;;4997670;28;20552;-76
2022/11/16 07:56:08;;;;;;;49.30;20.83;;;8.30;99.90;;;;;;4999327;28;20035;-76
2022/11/16 07:58:35;;;;;;;48.00;20.55;;;8.40;99.90;;;;;;4998946;28;20022;-76
2022/11/16 08:01:05;;;;;;;59.33;27.85;;;8.30;99.90;;;;;;4998011;28;20033;-76
2022/11/16 08:03:31;;;;;;;46.10;21.73;;;8.30;99.90;;;;;;4998244;28;20070;-76
2022/11/16 08:05:59;;;;;;;48.10;22.33;;;8.30;99.90;;;;;;4997293;28;20382;-76
2022/11/16 08:08:25;;;;;;;45.00;20.85;;;8.30;99.90;;;;;;4997441;28;20125;-76
2022/11/16 08:10:50;;;;;;;47.88;19.63;;;8.30;99.90;;;;;;4996942;28;20065;-77
2022/11/16 08:13:16;;;;;;;45.05;19.33;;;8.40;99.90;;;;;;4995913;28;20022;-76
2022/11/16 08:15:42;;;;;;;49.55;19.10;;;8.40;99.90;;;;;;4997452;28;20026;-76
2022/11/16 08:18:07;;;;;;;48.45;22.38;;;8.40;99.90;;;;;;4996035;28;20036;-76
2022/11/16 08:20:35;;;;;;;46.17;19.85;;;8.40;99.90;;;;;;4995797;28;20033;-76
2022/11/16 08:23:01;;;;;;;39.75;18.42;;;8.50;99.90;;;;;;4995322;28;20263;-76
2022/11/16 08:25:26;;;;;;;41.40;18.65;;;8.50;99.90;;;;;;4996741;28;20034;-76
2022/11/16 08:27:52;;;;;;;39.05;19.45;;;8.50;99.90;;;;;;4995106;28;20117;-76
2022/11/16 08:30:18;;;;;;;39.00;18.80;;;8.50;99.90;;;;;;4995109;28;20048;-76
2022/11/16 08:32:44;;;;;;;44.22;19.15;;;8.60;99.90;;;;;;4995558;28;20029;-76
2022/11/16 08:35:10;;;;;;;37.65;18.15;;;8.60;99.90;;;;;;4995985;28;20077;-76
2022/11/16 08:37:36;;;;;;;40.03;18.63;;;8.60;99.90;;;;;;4996013;28;20026;-76
2022/11/16 08:40:02;;;;;;;44.78;24.38;;;8.70;99.90;;;;;;4994853;28;20031;-76
2022/11/16 08:42:28;;;;;;;39.00;21.23;;;8.70;99.90;;;;;;4994683;28;20026;-76
2022/11/16 08:44:53;;;;;;;38.33;23.35;;;8.70;99.90;;;;;;4995992;28;20478;-76
2022/11/16 08:47:19;;;;;;;39.15;20.58;;;8.70;99.90;;;;;;4994555;28;20027;-76
2022/11/16 08:49:45;;;;;;;36.08;20.02;;;8.70;99.90;;;;;;4994965;28;20033;-75
2022/11/16 08:52:11;;;;;;;34.92;17.80;;;8.60;99.90;;;;;;4994954;28;20037;-76
2022/11/16 08:54:37;;;;;;;39.53;17.58;;;8.60;99.90;;;;;;4995372;28;20034;-75
2022/11/16 08:57:02;;;;;;;36.63;16.63;;;8.70;99.90;;;;;;4994675;28;20033;-76
2022/11/16 08:59:28;;;;;;;38.50;17.95;;;8.70;99.90;;;;;;4994562;28;20031;-76
2022/11/16 09:01:54;;;;;;;34.83;17.50;;;8.70;99.90;;;;;;4994568;28;20089;-76
2022/11/16 09:04:20;;;;;;;32.78;16.33;;;8.80;99.90;;;;;;4994793;28;20089;-76
2022/11/16 09:06:46;;;;;;;41.67;17.15;;;8.80;99.90;;;;;;4994242;28;20037;-76
2022/11/16 09:09:11;;;;;;;28.42;14.55;;;8.80;99.90;;;;;;4994311;28;20470;-76
2022/11/16 09:11:37;;;;;;;29.92;14.10;;;8.90;99.90;;;;;;4994949;28;20374;-75
2022/11/16 09:14:03;;;;;;;27.60;13.35;;;8.90;99.90;;;;;;4994266;28;20038;-75
2022/11/16 09:16:28;;;;;;;27.60;14.23;;;8.90;99.90;;;;;;4994922;28;20030;-76
2022/11/16 09:18:55;;;;;;;26.63;14.15;;;9.00;99.90;;;;;;4994025;28;20486;-76
2022/11/16 09:21:24;;;;;;;31.90;14.82;;;8.90;99.90;;;;;;4995259;28;20032;-76
2022/11/16 09:23:50;;;;;;;31.52;16.00;;;8.90;99.90;;;;;;4995013;28;20026;-76
2022/11/16 09:26:20;;;;;;;33.88;15.38;;;9.00;99.90;;;;;;4994656;28;20387;-76
2022/11/16 09:28:46;;;;;;;37.05;15.70;;;8.90;99.90;;;;;;4993750;28;20462;-76
2022/11/16 09:31:12;;;;;;;30.75;16.70;;;8.80;99.90;;;;;;4994625;28;20386;-75
2022/11/16 09:33:37;;;;;;;28.27;14.07;;;8.80;99.90;;;;;;4994800;28;20022;-75
2022/11/16 09:36:06;;;;;;;29.35;15.30;;;8.80;99.90;;;;;;4995188;28;20368;-76
2022/11/16 09:38:39;;;;;;;32.97;17.90;;;8.80;99.90;;;;;;4993604;28;20034;-76
2022/11/16 09:41:14;;;;;;;27.42;15.07;;;8.80;99.90;;;;;;4995649;28;20092;-76
2022/11/16 09:43:40;;;;;;;36.22;16.02;;;8.80;99.90;;;;;;4993530;28;20089;-75
2022/11/16 09:46:24;;;;;;;30.33;14.88;;;8.80;99.90;;;;;;4994244;28;20050;-75
2022/11/16 09:48:51;;;;;;;28.35;15.50;;;8.80;99.90;;;;;;4995055;28;20037;-75
2022/11/16 09:51:21;;;;;;;31.95;15.45;;;8.80;99.90;;;;;;4993627;28;20434;-75
2022/11/16 09:54:04;;;;;;;30.30;16.00;;;8.80;99.90;;;;;;4994147;28;20417;-75
2022/11/16 09:56:34;;;;;;;29.88;15.20;;;8.80;99.90;;;;;;4994017;28;20040;-75
2022/11/16 09:59:08;;;;;;;27.60;13.80;;;8.70;99.90;;;;;;4993898;28;20026;-75
2022/11/16 10:01:56;;;;;;;27.52;14.00;;;8.70;99.90;;;;;;4994707;28;20080;-76
2022/11/16 10:04:28;;;;;;;27.60;14.13;;;8.70;99.90;;;;;;4995152;28;20026;-76
2022/11/16 10:07:04;;;;;;;25.15;13.15;;;8.70;99.90;;;;;;4993544;28;20269;-76
2022/11/16 10:09:30;;;;;;;27.88;13.75;;;8.70;99.90;;;;;;4993857;28;20058;-75
2022/11/16 10:12:28;;;;;;;24.20;13.13;;;8.70;99.90;;;;;;4993329;28;20117;-77
2022/11/16 10:15:18;;;;;;;29.63;14.53;;;8.70;99.90;;;;;;4962164;28;20401;-75
2022/11/16 10:18:21;;;;;;;29.58;14.40;;;8.70;99.90;;;;;;4995033;28;20297;-76
2022/11/16 10:20:57;;;;;;;28.55;14.15;;;8.70;99.90;;;;;;4993451;28;20030;-76
2022/11/16 10:23:54;;;;;;;32.28;15.38;;;8.80;99.90;;;;;;4994991;28;20023;-75
2022/11/16 10:26:54;;;;;;;28.98;13.63;;;8.80;99.90;;;;;;4993701;28;20027;-76
2022/11/16 10:29:56;;;;;;;27.75;14.48;;;8.80;99.90;;;;;;4979228;28;20434;-76
2022/11/16 10:32:31;;;;;;;32.88;16.00;;;8.80;99.90;;;;;;4993646;28;20026;-75
2022/11/16 10:35:00;;;;;;;29.15;14.77;;;8.80;99.90;;;;;;4993499;28;20030;-76
2022/11/16 10:37:33;;;;;;;35.53;17.55;;;8.80;99.90;;;;;;4994331;28;20027;-75
2022/11/16 10:40:01;;;;;;;30.60;16.15;;;8.80;99.90;;;;;;4994615;28;20035;-77
2022/11/16 10:42:39;;;;;;;30.27;14.68;;;8.80;99.90;;;;;;4995169;28;20488;-76
2022/11/16 10:45:13;;;;;;;37.50;19.75;;;8.70;99.90;;;;;;4994586;28;20050;-77
2022/11/16 10:47:45;;;;;;;33.15;17.33;;;8.70;99.90;;;;;;4995037;28;20065;-77
2022/11/16 10:50:38;;;;;;;30.05;15.93;;;8.80;99.90;;;;;;4997103;28;20030;-78
2022/11/16 10:53:04;;;;;;;26.95;14.88;;;8.80;99.90;;;;;;5000765;28;20062;-77
2022/11/16 10:55:30;;;;;;;30.27;14.98;;;8.80;99.90;;;;;;4999957;28;20026;-77
2022/11/16 10:58:01;;;;;;;25.95;13.68;;;8.80;99.90;;;;;;4998270;28;20023;-77
2022/11/16 11:00:39;;;;;;;26.27;13.45;;;8.80;99.90;;;;;;4996935;28;20164;-77
2022/11/16 11:03:05;;;;;;;24.70;13.18;;;8.80;99.90;;;;;;4995112;28;20113;-76
2022/11/16 11:05:31;;;;;;;25.25;12.40;;;8.80;99.90;;;;;;4994132;28;20140;-77
2022/11/16 11:08:01;;;;;;;27.75;13.10;;;8.90;99.90;;;;;;4994916;28;20034;-76
2022/11/16 11:10:32;;;;;;;28.13;11.85;;;8.90;99.90;;;;;;4994314;28;20022;-77
2022/11/16 11:13:10;;;;;;;22.45;12.15;;;9.00;99.90;;;;;;4994130;28;20062;-77
2022/11/16 11:15:37;;;;;;;21.98;11.77;;;9.00;99.90;;;;;;4996351;28;20077;-77
2022/11/16 11:18:22;;;;;;;21.10;12.05;;;9.10;99.90;;;;;;4997238;28;20150;-77
2022/11/16 11:21:05;;;;;;;21.83;12.05;;;9.10;99.90;;;;;;4996629;28;20117;-76
2022/11/16 11:23:47;;;;;;;22.48;12.50;;;9.20;99.90;;;;;;4996570;28;20066;-76
2022/11/16 11:26:28;;;;;;;22.95;13.25;;;9.20;99.90;;;;;;4996553;28;20058;-76
2022/11/16 11:28:54;;;;;;;23.17;12.77;;;9.30;99.90;;;;;;4996257;28;20458;-76
2022/11/16 11:31:32;;;;;;;24.15;12.30;;;9.30;99.90;;;;;;4997262;28;20022;-76
2022/11/16 11:34:19;;;;;;;23.08;12.05;;;9.40;99.90;;;;;;4996285;28;20117;-76
2022/11/16 11:37:00;;;;;;;19.02;11.02;;;9.40;99.90;;;;;;4997277;28;20481;-75
2022/11/16 11:39:36;;;;;;;17.52;10.10;;;9.40;99.90;;;;;;4995848;28;20037;-76
2022/11/16 11:42:22;;;;;;;23.63;11.52;;;9.40;99.90;;;;;;4997199;28;20053;-76
2022/11/16 11:44:57;;;;;;;21.20;10.40;;;9.30;99.90;;;;;;4996842;28;20065;-75
2022/11/16 11:47:28;;;;;;;23.00;11.65;;;9.20;99.90;;;;;;4996485;28;20103;-76
2022/11/16 11:50:04;;;;;;;26.10;12.13;;;9.20;99.90;;;;;;4995949;28;20029;-75
2022/11/16 11:52:44;;;;;;;24.00;12.25;;;9.10;99.90;;;;;;4997987;28;20026;-76
2022/11/16 11:55:15;;;;;;;21.65;11.77;;;8.90;99.90;;;;;;4998477;28;20034;-75
2022/11/16 11:57:43;;;;;;;26.77;13.20;;;8.70;99.90;;;;;;4999822;28;20031;-76
2022/11/16 12:00:13;;;;;;;23.63;13.25;;;8.50;99.90;;;;;;5000568;28;20026;-76
2022/11/16 12:02:47;;;;;;;21.55;11.75;;;8.40;99.90;;;;;;4999529;28;20019;-76
2022/11/16 12:05:25;;;;;;;24.98;12.80;;;8.30;99.90;;;;;;4999424;28;20150;-75
2022/11/16 12:08:20;;;;;;;24.67;13.70;;;8.20;99.90;;;;;;5001507;28;20046;-75
2022/11/16 12:10:49;;;;;;;26.02;12.70;;;8.20;99.90;;;;;;4994581;28;20048;-76
2022/11/16 12:13:57;;;;;;;28.48;13.85;;;8.20;99.90;;;;;;5001550;28;20022;-75
2022/11/16 12:16:31;;;;;;;26.38;13.23;;;8.10;99.90;;;;;;4999705;28;20049;-75
2022/11/16 12:19:34;;;;;;;29.08;13.73;;;8.10;99.90;;;;;;5000503;28;20026;-75
2022/11/16 12:22:18;;;;;;;27.90;12.57;;;8.00;99.90;;;;;;4999425;28;20118;-75
2022/11/16 12:24:57;;;;;;;31.05;15.15;;;8.10;99.90;;;;;;4997678;28;20062;-75
2022/11/16 12:27:35;;;;;;;;;;;8.10;99.90;;;;;;4999583;28;20490;-75
2022/11/16 12:30:17;;;;;;;23.85;11.90;;;8.00;99.90;;;;;;4999681;28;19941;-75
2022/11/16 12:32:54;;;;;;;23.17;12.65;;;8.00;99.90;;;;;;4997846;28;20117;-75
2022/11/16 12:35:28;;;;;;;23.85;12.20;;;8.10;99.90;;;;;;4997816;28;20069;-75
2022/11/16 12:37:59;;;;;;;22.35;12.25;;;8.10;99.90;;;;;;4997823;28;20026;-75
2022/11/16 12:40:58;;;;;;;24.00;12.70;;;8.10;99.90;;;;;;4998289;28;20023;-75
2022/11/16 12:43:27;;;;;;;21.60;11.23;;;8.10;99.90;;;;;;4996101;28;20490;-75
2022/11/16 12:45:55;;;;;;;22.98;10.30;;;8.20;99.90;;;;;;4996243;28;20026;-75
2022/11/16 12:48:58;;;;;;;21.52;11.35;;;8.20;99.90;;;;;;4998956;28;20030;-75
2022/11/16 12:51:43;;;;;;;21.75;11.00;;;8.20;99.90;;;;;;4999731;28;20086;-57
2022/11/16 12:54:22;;;;;;;19.77;9.70;;;8.20;99.90;;;;;;4994270;28;20030;-57
2022/11/16 12:57:14;;;;;;;17.75;9.00;;;8.20;99.90;;;;;;4997320;28;20030;-75
2022/11/16 13:00:09;;;;;;;17.38;8.63;;;8.30;99.90;;;;;;4996667;28;20031;-75
2022/11/16 13:02:34;;;;;;;15.82;8.20;;;8.30;99.90;;;;;;4998634;28;20045;-75
2022/11/16 13:05:13;;;;;;;15.90;9.27;;;8.20;99.90;;;;;;4998012;28;20026;-75
2022/11/16 13:07:46;;;;;;;17.45;8.65;;;8.30;99.90;;;;;;4996750;28;20459;-75
2022/11/16 13:10:15;;;;;;;19.95;8.52;;;8.20;99.90;;;;;;4996387;28;20131;-75
2022/11/16 13:12:42;;;;;;;;;;;8.20;99.90;;;;;;4996870;28;20026;-75
2022/11/16 13:15:18;;;;;;;13.77;7.35;;;8.20;99.90;;;;;;4995870;28;19933;-75
2022/11/16 13:17:50;;;;;;;12.90;8.07;;;8.20;99.90;;;;;;4998179;28;20352;-74
2022/11/16 13:20:45;;;;;;;14.40;7.55;;;8.30;99.90;;;;;;4997431;28;20364;-75
2022/11/16 13:23:29;;;;;;;14.57;8.20;;;8.30;99.90;;;;;;4988836;28;20034;-75
2022/11/16 13:26:19;;;;;;;14.95;9.23;;;8.40;99.90;;;;;;4997745;28;20030;-75
2022/11/16 13:29:08;;;;;;;15.98;8.68;;;8.60;99.90;;;;;;4997031;28;20121;-75
2022/11/16 13:31:34;;;;;;;14.20;7.78;;;8.80;99.90;;;;;;4995467;28;20023;-74
2022/11/16 13:34:11;;;;;;;11.60;7.22;;;8.90;99.90;;;;;;4993758;28;20041;-68
2022/11/16 13:36:43;;;;;;;11.85;7.28;;;9.00;99.90;;;;;;4993126;28;20030;-71
2022/11/16 13:39:20;;;;;;;13.30;7.13;;;9.00;99.90;;;;;;4993620;28;20087;-70
2022/11/16 13:41:48;;;;;;;13.40;6.75;;;9.00;99.90;;;;;;4994958;28;20027;-74
2022/11/16 13:44:20;;;;;;;12.10;6.53;;;9.00;99.90;;;;;;4994552;28;20058;-70
2022/11/16 13:46:47;;;;;;;10.30;7.15;;;9.10;99.90;;;;;;4993606;28;20049;-70
2022/11/16 13:49:34;;;;;;;14.23;7.57;;;9.10;99.90;;;;;;4993484;28;20026;-69
2022/11/16 13:52:03;;;;;;;12.00;7.03;;;9.00;99.90;;;;;;4994650;28;20390;-68
2022/11/16 13:54:41;;;;;;;12.70;7.18;;;9.10;99.90;;;;;;4994751;28;20034;-68